Meteo Giornale » Osservazioni meteo Italia » Lecce

ore: 01:55 - Osservazioni Meteo Lecce
Lat. 40° 14' N Lon. 18° 9' E Alt. 48 metri s.l.m.

sereno Europe/Rome

28 °C

Sereno

Temp. 24 Ore

24 °C

37 °C

Sud/Sud-Est

14.8 Km/h

Dew point 26 °C

Umidità 88 %

Visibilità  10 Km

Il sole sorge alle ore 05:47

Il sole tramonta alle ore 19:58

Data e Ora Cielo e Fenomeni T °C DP °C Um. % Pres. hPa Vis. km Vento km/h
Oggi h: 01:55 sereno Sereno 28 26 88 1011 10 S/SE 14.8
Oggi h: 00:55 sereno Sereno 28 25 83 1012 10 S/SE 11.1
Ieri h: 23:55 sereno Sereno 28 24 78 1012 10 S/SE 13
Ieri h: 22:55 sereno Sereno 28 22 69 1012 10 S/SE 14.8
Ieri h: 21:55 sereno Sereno 29 20 58 1012 10 S 14.8
Ieri h: 20:55 sereno Sereno 30 20 55 1012 10 S 13
Ieri h: 19:55 sereno Sereno 31 19 48 1012 10 S/SE 14.8
Ieri h: 17:55 sereno Sereno 35 18 36 1013 10 S 14.8
Ieri h: 16:55 poco_nuvoloso Poco Nuvoloso 37 20 37 1013 10 S 18.5
Ieri h: 15:55 sereno Sereno 37 21 39 1013 10 S/SO 16.7
Ieri h: 13:55 sereno Sereno 36 18 34 1014 10 SO 18.5
Ieri h: 12:55 sereno Sereno 36 20 39 1014 10 SO 9.3
Ieri h: 11:55 sereno Sereno 35 19 39 1014 10 S/SO 9.3
Ieri h: 10:55 poco_nuvoloso Poco Nuvoloso 33 20 46 1015 10 N 5.5
Ieri h: 09:55 sereno Sereno 32 22 55 1015 10 N/NO 7.4
Ieri h: 08:55 poco_nuvoloso Poco Nuvoloso 30 22 62 1015 10 N 11.1
Ieri h: 07:55 sereno Sereno 28 23 74 1015 10 N/NE 7.4
Ieri h: 06:55 sereno Sereno 24 23 94 1014 10 E 7.4
Ieri h: 05:55 sereno Sereno 24 22 88 1014 10 N 3.7
Ieri h: 04:55 sereno Sereno 26 23 83 1014 10 N 3.7
Ieri h: 03:55 sereno Sereno 26 22 78 1014 10 N 5.5
Ieri h: 02:55 sereno Sereno 26 21 73 1014 10 N/NO 9.3